Time;durP1;ratioP1;P1;durP2;ratioP2;P2;SDS_P1;SDS_P2;PMS_P1;PMS_P2;Temp;Humidity;BMP_temperature;BMP_pressure;BME280_temperature;BME280_humidity;BME280_pressure;Samples;Min_cycle;Max_cycle;Signal;HPM_P1;HPM_P2
2021/11/14 00:01:15;;;;;;;203.80;133.40;;;;;;;2.94;100.00;99255.51;103733;1310;69353;-71
2021/11/14 00:03:42;;;;;;;191.00;128.70;;;;;;;2.96;100.00;99254.55;102486;1311;74047;-73
2021/11/14 00:06:10;;;;;;;197.20;131.00;;;;;;;2.99;100.00;99255.52;102448;1310;61215;-72
2021/11/14 00:08:38;;;;;;;185.40;122.10;;;;;;;3.01;100.00;99257.39;102492;1310;61215;-72
2021/11/14 00:11:11;;;;;;;189.50;124.40;;;;;;;3.02;100.00;99255.95;102355;1310;76674;-73
2021/11/14 00:13:40;;;;;;;192.30;125.40;;;;;;;3.02;100.00;99255.59;102354;1311;69424;-73
2021/11/14 00:16:07;;;;;;;194.40;125.80;;;;;;;3.03;100.00;99254.16;102440;1310;74511;-72
2021/11/14 00:18:34;;;;;;;195.20;125.20;;;;;;;3.05;100.00;99254.78;102307;1314;61313;-73
2021/11/14 00:21:01;;;;;;;193.40;123.40;;;;;;;3.08;100.00;99254.69;102267;1310;61257;-72
2021/11/14 00:23:29;;;;;;;198.80;125.90;;;;;;;3.09;100.00;99257.13;102318;1312;74207;-73
2021/11/14 00:25:55;;;;;;;190.10;121.70;;;;;;;3.11;100.00;99256.90;102256;1314;70432;-72
2021/11/14 00:28:22;;;;;;;188.70;124.10;;;;;;;3.12;100.00;99255.46;102288;1313;73529;-72
2021/11/14 00:30:49;;;;;;;193.10;123.90;;;;;;;3.12;100.00;99253.70;102308;1311;61329;-72
2021/11/14 00:33:17;;;;;;;188.70;125.30;;;;;;;3.12;100.00;99257.04;102303;1310;61972;-72
2021/11/14 00:35:47;;;;;;;204.70;130.90;;;;;;;3.13;100.00;99257.02;102012;1318;75944;-73
2021/11/14 00:38:14;;;;;;;216.90;137.70;;;;;;;3.14;100.00;99256.08;101870;1316;70818;-72
2021/11/14 00:40:41;;;;;;;204.60;135.10;;;;;;;3.16;100.00;99253.92;102489;1316;73612;-73
2021/11/14 00:43:08;;;;;;;208.90;134.80;;;;;;;3.17;100.00;99256.15;102330;1314;61334;-73
2021/11/14 00:45:37;;;;;;;203.20;133.30;;;;;;;3.18;100.00;99254.72;102309;1310;62215;-72
2021/11/14 00:48:04;;;;;;;200.50;133.50;;;;;;;3.21;100.00;99257.25;102018;1316;73664;-72
2021/11/14 00:50:32;;;;;;;215.50;131.20;;;;;;;3.25;100.00;99256.77;102389;1310;70710;-72
2021/11/14 00:53:00;;;;;;;212.30;133.70;;;;;;;3.28;100.00;99257.19;102389;1313;73460;-72
2021/11/14 00:55:30;;;;;;;205.80;134.90;;;;;;;3.30;100.00;99257.13;102358;1313;61423;-72
2021/11/14 00:57:57;;;;;;;205.40;132.80;;;;;;;3.35;100.00;99259.77;102223;1313;61318;-72
2021/11/14 01:00:25;;;;;;;199.10;133.50;;;;;;;3.37;100.00;99263.25;102302;1310;76509;-73
2021/11/14 01:02:53;;;;;;;197.60;135.40;;;;;;;3.38;100.00;99263.38;101879;1313;67857;-73
2021/11/14 01:05:22;;;;;;;204.30;135.90;;;;;;;3.39;100.00;99261.61;102296;1313;73461;-73
2021/11/14 01:07:49;;;;;;;198.70;134.10;;;;;;;3.41;100.00;99265.74;102372;1311;61292;-73
2021/11/14 01:10:19;;;;;;;196.50;131.90;;;;;;;3.41;100.00;99259.57;102338;1310;61292;-73
2021/11/14 01:12:46;;;;;;;196.10;134.40;;;;;;;3.41;100.00;99259.77;102403;1314;75516;-72
2021/11/14 01:15:14;;;;;;;206.00;140.80;;;;;;;3.40;100.00;99258.73;102353;1310;69470;-73
2021/11/14 01:17:42;;;;;;;206.40;138.40;;;;;;;3.40;100.00;99259.77;102489;1310;73571;-73
2021/11/14 01:20:16;;;;;;;198.10;136.50;;;;;;;3.40;100.00;99261.02;102352;1310;61358;-73
2021/11/14 01:22:45;;;;;;;204.10;136.40;;;;;;;3.40;100.00;99260.14;102304;1310;61286;-73
2021/11/14 01:25:13;;;;;;;195.90;137.20;;;;;;;3.42;100.00;99264.83;102249;1309;77134;-72
2021/11/14 01:27:41;;;;;;;197.90;133.40;;;;;;;3.44;100.00;99267.23;102481;1310;70556;-74
2021/11/14 01:30:12;;;;;;;196.40;134.90;;;;;;;3.47;100.00;99266.94;102297;1311;73518;-73
2021/11/14 01:32:40;;;;;;;199.70;140.30;;;;;;;3.47;100.00;99267.28;102246;1314;61323;-73
2021/11/14 01:35:10;;;;;;;196.20;137.20;;;;;;;3.47;100.00;99266.04;102396;1318;61413;-73
2021/11/14 01:37:37;;;;;;;199.30;136.60;;;;;;;3.46;100.00;99267.86;102337;1310;76645;-73
2021/11/14 01:40:05;;;;;;;195.00;136.20;;;;;;;3.45;100.00;99266.46;102305;1310;69849;-73
2021/11/14 01:42:32;;;;;;;197.60;134.10;;;;;;;3.46;100.00;99266.43;102290;1310;74565;-72
2021/11/14 01:44:59;;;;;;;182.30;127.80;;;;;;;3.47;100.00;99264.48;102309;1310;61287;-72
2021/11/14 01:47:26;;;;;;;181.20;126.40;;;;;;;3.49;100.00;99266.52;102351;1311;62427;-73
2021/11/14 01:49:52;;;;;;;179.30;122.10;;;;;;;3.50;100.00;99265.60;102295;1313;75508;-72
2021/11/14 01:52:22;;;;;;;185.20;124.70;;;;;;;3.51;100.00;99265.04;102354;1310;70038;-73
2021/11/14 01:54:48;;;;;;;180.90;122.60;;;;;;;3.52;100.00;99269.04;102006;1310;73464;-72
2021/11/14 01:57:15;;;;;;;174.40;121.70;;;;;;;3.53;100.00;99267.98;102217;1313;61388;-73
2021/11/14 01:59:42;;;;;;;175.00;123.30;;;;;;;3.53;100.00;99267.08;102306;1310;62325;-72
2021/11/14 02:02:11;;;;;;;174.20;122.20;;;;;;;3.54;100.00;99268.09;102317;1310;76965;-72
2021/11/14 02:04:39;;;;;;;183.10;123.20;;;;;;;3.57;100.00;99267.66;101863;1310;69992;-72
2021/11/14 02:07:07;;;;;;;186.00;125.90;;;;;;;3.57;100.00;99268.70;102395;1316;74473;-73
2021/11/14 02:09:35;;;;;;;183.00;128.40;;;;;;;3.58;100.00;99267.27;102318;1310;61262;-72
2021/11/14 02:12:02;;;;;;;179.00;124.30;;;;;;;3.59;100.00;99263.02;102404;1314;62071;-72
2021/11/14 02:14:29;;;;;;;191.80;129.90;;;;;;;3.60;100.00;99265.09;101952;1317;74872;-73
2021/11/14 02:16:57;;;;;;;188.50;126.90;;;;;;;3.60;100.00;99264.37;102290;1317;69602;-73
2021/11/14 02:19:23;;;;;;;180.70;125.20;;;;;;;3.60;100.00;99270.89;101994;1316;73767;-72
2021/11/14 02:21:52;;;;;;;187.20;126.90;;;;;;;3.60;100.00;99271.95;102342;1316;61325;-73
2021/11/14 02:24:20;;;;;;;181.40;123.40;;;;;;;3.59;100.00;99276.39;102477;1310;61334;-72
2021/11/14 02:26:47;;;;;;;174.80;125.80;;;;;;;3.58;100.00;99271.30;102056;1316;76843;-73
2021/11/14 02:29:15;;;;;;;203.60;137.80;;;;;;;3.60;100.00;99273.69;102080;1319;70430;-72
2021/11/14 02:31:42;;;;;;;202.20;140.20;;;;;;;3.60;100.00;99272.64;102171;1314;74557;-73
2021/11/14 02:34:10;;;;;;;221.60;157.10;;;;;;;3.61;100.00;99273.50;102402;1310;61344;-72
2021/11/14 02:36:38;;;;;;;225.40;155.10;;;;;;;3.62;100.00;99277.17;101960;1318;61353;-73
2021/11/14 02:39:05;;;;;;;218.90;152.90;;;;;;;3.62;100.00;99274.50;102519;1310;75368;-72
2021/11/14 02:41:33;;;;;;;206.00;145.70;;;;;;;3.62;100.00;99272.94;101807;1317;67693;-73
2021/11/14 02:43:59;;;;;;;194.60;137.50;;;;;;;3.64;100.00;99274.98;102329;1310;71619;-73
2021/11/14 02:46:26;;;;;;;175.80;125.10;;;;;;;3.65;100.00;99277.56;102328;1313;61421;-72
2021/11/14 02:48:53;;;;;;;189.20;134.90;;;;;;;3.66;100.00;99282.09;102360;1310;62139;-72
2021/11/14 02:51:24;;;;;;;197.90;134.70;;;;;;;3.66;100.00;99278.73;102368;1310;75483;-73
2021/11/14 02:53:51;;;;;;;193.20;136.00;;;;;;;3.68;100.00;99284.29;102315;1314;70528;-72
2021/11/14 02:56:19;;;;;;;180.90;129.20;;;;;;;3.70;100.00;99282.30;102374;1310;73556;-72
2021/11/14 02:58:46;;;;;;;188.70;134.90;;;;;;;3.71;100.00;99280.69;102335;1311;61390;-72
2021/11/14 03:01:22;;;;;;;177.80;122.30;;;;;;;3.73;100.00;99275.89;102285;1310;61286;-73
2021/11/14 03:03:51;;;;;;;165.80;117.20;;;;;;;3.74;100.00;99279.90;102305;1313;76731;-72
2021/11/14 03:06:18;;;;;;;162.70;115.80;;;;;;;3.75;100.00;99278.80;102320;1311;69495;-73
2021/11/14 03:08:45;;;;;;;166.90;116.30;;;;;;;3.78;100.00;99280.48;102318;1314;73715;-72
2021/11/14 03:11:12;;;;;;;159.90;114.80;;;;;;;3.79;100.00;99281.67;102264;1316;61326;-73
2021/11/14 03:13:39;;;;;;;162.00;114.10;;;;;;;3.80;100.00;99284.27;102306;1311;61360;-72
2021/11/14 03:16:17;;;;;;;164.00;112.70;;;;;;;3.81;100.00;99288.98;102298;1314;76755;-72
2021/11/14 03:18:44;;;;;;;175.20;119.50;;;;;;;3.80;100.00;99286.52;102357;1314;69689;-73
2021/11/14 03:21:11;;;;;;;168.50;118.00;;;;;;;3.79;100.00;99285.87;102305;1310;74432;-72
2021/11/14 03:23:38;;;;;;;163.90;115.40;;;;;;;3.80;100.00;99283.92;102300;1316;61348;-72
2021/11/14 03:26:05;;;;;;;163.40;117.20;;;;;;;3.80;100.00;99287.45;102348;1310;61661;-72
2021/11/14 03:28:33;;;;;;;157.50;112.40;;;;;;;3.81;100.00;99289.52;102328;1316;76200;-72
2021/11/14 03:31:00;;;;;;;163.40;112.60;;;;;;;3.82;100.00;99289.64;102320;1310;69859;-72
2021/11/14 03:33:27;;;;;;;160.30;113.80;;;;;;;3.82;100.00;99294.92;102286;1313;73409;-73
2021/11/14 03:36:01;;;;;;;166.90;116.50;;;;;;;3.82;100.00;99295.98;102314;1310;61396;-73
2021/11/14 03:38:34;;;;;;;163.70;114.30;;;;;;;3.83;100.00;99294.72;102349;1310;61209;-72
2021/11/14 03:41:02;;;;;;;173.30;117.30;;;;;;;3.83;100.00;99294.20;101949;1316;76452;-72
2021/11/14 03:43:30;;;;;;;167.40;115.30;;;;;;;3.82;100.00;99299.31;102409;1310;69632;-71
2021/11/14 03:45:57;;;;;;;167.40;117.50;;;;;;;3.82;100.00;99300.73;102449;1310;74756;-73
2021/11/14 03:48:25;;;;;;;173.70;119.00;;;;;;;3.82;100.00;99303.86;102452;1311;61403;-72
2021/11/14 03:50:52;;;;;;;169.20;117.80;;;;;;;3.83;100.00;99307.36;102397;1310;62404;-73
2021/11/14 03:53:20;;;;;;;171.10;115.10;;;;;;;3.84;100.00;99308.55;102312;1314;75729;-72
2021/11/14 03:55:48;;;;;;;169.80;119.50;;;;;;;3.83;100.00;99306.98;102343;1310;69646;-71
2021/11/14 03:58:16;;;;;;;183.60;126.00;;;;;;;3.84;100.00;99308.19;102308;1313;74539;-73
2021/11/14 04:00:46;;;;;;;175.70;122.20;;;;;;;3.85;100.00;99308.86;102041;1316;61408;-73
2021/11/14 04:03:14;;;;;;;169.30;124.20;;;;;;;3.86;100.00;99308.98;102380;1311;62188;-73
2021/11/14 04:05:45;;;;;;;169.30;121.00;;;;;;;3.87;100.00;99310.39;102326;1316;75027;-73
2021/11/14 04:08:14;;;;;;;181.00;122.50;;;;;;;3.87;100.00;99306.52;102464;1318;70842;-73
2021/11/14 04:10:42;;;;;;;177.20;121.90;;;;;;;3.86;100.00;99307.61;102407;1314;74644;-73
2021/11/14 04:13:11;;;;;;;175.10;125.40;;;;;;;3.85;100.00;99308.48;102180;1319;61414;-73
2021/11/14 04:15:38;;;;;;;180.30;128.70;;;;;;;3.86;100.00;99312.50;102369;1313;61686;-73
2021/11/14 04:18:05;;;;;;;173.00;121.30;;;;;;;3.86;100.00;99312.15;102630;1313;76424;-73
2021/11/14 04:20:35;;;;;;;175.70;121.30;;;;;;;3.86;100.00;99311.12;102227;1313;69604;-72
2021/11/14 04:23:03;;;;;;;173.20;119.20;;;;;;;3.87;100.00;99314.59;102486;1314;74417;-72
2021/11/14 04:25:29;;;;;;;169.50;116.30;;;;;;;3.87;100.00;99313.36;102295;1311;61216;-72
2021/11/14 04:27:57;;;;;;;179.00;120.90;;;;;;;3.88;100.00;99312.64;102298;1316;62247;-72
2021/11/14 04:30:26;;;;;;;170.90;119.70;;;;;;;3.89;100.00;99311.89;102204;1317;75509;-73
2021/11/14 04:32:54;;;;;;;171.30;118.60;;;;;;;3.89;100.00;99315.58;102392;1310;70483;-72
2021/11/14 04:35:21;;;;;;;171.40;120.90;;;;;;;3.88;100.00;99323.33;102589;1310;73160;-72
2021/11/14 04:37:49;;;;;;;172.70;120.20;;;;;;;3.88;100.00;99326.34;102147;1316;61336;-72
2021/11/14 04:40:19;;;;;;;168.30;121.20;;;;;;;3.88;100.00;99329.68;102193;1310;158431;-72
2021/11/14 04:42:46;;;;;;;169.20;116.00;;;;;;;3.87;100.00;99327.43;102378;1310;76083;-73
2021/11/14 04:45:14;;;;;;;160.50;112.10;;;;;;;3.88;100.00;99331.98;102390;1310;70283;-72
2021/11/14 04:47:40;;;;;;;157.90;108.90;;;;;;;3.89;100.00;99331.04;102308;1311;73748;-73
2021/11/14 04:50:11;;;;;;;162.70;110.30;;;;;;;3.88;100.00;99333.36;102280;1311;61270;-73
2021/11/14 04:52:39;;;;;;;;;;;;;;;3.88;100.00;99333.03;102422;1310;62171;-72
2021/11/14 04:55:07;;;;;;;162.20;107.10;;;;;;;3.87;100.00;99334.11;102393;1314;75323;-72
2021/11/14 04:57:34;;;;;;;157.10;109.40;;;;;;;3.87;100.00;99338.50;102424;1310;70570;-73
2021/11/14 05:00:01;;;;;;;152.10;105.20;;;;;;;3.86;100.00;99341.33;102414;1317;74624;-72
2021/11/14 05:02:28;;;;;;;160.40;105.80;;;;;;;3.85;100.00;99343.99;102507;1311;61293;-72
2021/11/14 05:04:54;;;;;;;162.50;102.00;;;;;;;3.86;100.00;99349.45;102586;1310;61295;-72
2021/11/14 05:07:21;;;;;;;153.40;100.90;;;;;;;3.86;100.00;99347.86;102574;1314;76409;-74
2021/11/14 05:09:47;;;;;;;145.60;98.00;;;;;;;3.85;100.00;99351.58;102500;1314;70518;-73
2021/11/14 05:12:14;;;;;;;145.20;95.00;;;;;;;3.84;100.00;99354.60;102455;1314;61391;-71
2021/11/14 05:14:40;;;;;;;147.50;96.80;;;;;;;3.83;100.00;99355.88;102508;1317;61490;-72
2021/11/14 05:17:07;;;;;;;145.80;93.90;;;;;;;3.82;100.00;99359.06;102501;1310;61660;-73
2021/11/14 05:19:34;;;;;;;139.70;89.80;;;;;;;3.81;100.00;99365.23;102541;1310;76474;-72
2021/11/14 05:22:00;;;;;;;144.90;90.40;;;;;;;3.82;100.00;99364.34;102219;1311;70595;-72
2021/11/14 05:24:27;;;;;;;137.60;88.40;;;;;;;3.83;100.00;99366.23;102012;1316;71874;-72
2021/11/14 05:26:54;;;;;;;146.20;91.10;;;;;;;3.84;100.00;99366.20;102466;1310;61192;-73
2021/11/14 05:29:21;;;;;;;150.70;94.00;;;;;;;3.84;100.00;99365.84;102634;1314;61308;-73
2021/11/14 05:31:48;;;;;;;138.20;89.10;;;;;;;3.85;100.00;99363.89;102603;1310;74418;-73
2021/11/14 05:34:15;;;;;;;137.20;88.10;;;;;;;3.86;100.00;99366.33;102693;1313;69173;-72
2021/11/14 05:36:42;;;;;;;137.60;88.70;;;;;;;3.85;100.00;99368.61;102773;1311;74518;-72
2021/11/14 05:39:08;;;;;;;137.00;86.20;;;;;;;3.85;100.00;99368.63;102902;1310;61294;-72
2021/11/14 05:41:35;;;;;;;136.30;89.00;;;;;;;3.85;100.00;99366.34;103000;1310;60082;-72
2021/11/14 05:44:02;;;;;;;137.10;89.80;;;;;;;3.86;100.00;99365.45;102612;1316;76022;-72
2021/11/14 05:46:29;;;;;;;147.70;93.30;;;;;;;3.86;100.00;99372.10;103060;1310;70022;-73
2021/11/14 05:48:55;;;;;;;137.20;90.30;;;;;;;3.87;100.00;99371.91;105520;1310;74415;-73
2021/11/14 05:51:22;;;;;;;144.60;92.00;;;;;;;3.88;100.00;99379.59;105483;1316;61416;-74
2021/11/14 05:53:48;;;;;;;142.60;89.90;;;;;;;3.89;100.00;99384.12;105483;1310;61176;-73
2021/11/14 05:56:15;;;;;;;134.90;89.40;;;;;;;3.91;100.00;99388.98;105300;1314;75394;-73
2021/11/14 05:58:50;;;;;;;133.90;89.30;;;;;;;3.92;100.00;99390.16;103334;1310;68006;-73
2021/11/14 06:01:24;;;;;;;135.60;87.50;;;;;;;3.93;100.00;99391.38;102511;1310;74486;-72
2021/11/14 06:05:01;;;;;;;141.70;88.70;;;;;;;3.94;100.00;99396.27;102462;1316;61348;-73
2021/11/14 06:06:47;;;;;;;137.90;91.60;;;;;;;3.95;100.00;99403.78;102314;1316;61257;-72
2021/11/14 06:09:14;;;;;;;140.10;95.60;;;;;;;3.97;100.00;99410.23;102472;1310;75923;-73
2021/11/14 06:11:40;;;;;;;143.50;93.60;;;;;;;3.98;100.00;99411.96;102350;1314;67731;-71
2021/11/14 06:14:07;;;;;;;140.70;92.10;;;;;;;3.99;100.00;99415.63;102291;1317;71579;-73
2021/11/14 06:16:34;;;;;;;134.80;90.40;;;;;;;3.99;100.00;99417.18;102316;1313;61308;-72
2021/11/14 06:19:00;;;;;;;138.20;90.70;;;;;;;4.01;100.00;99421.55;102434;1311;61305;-72
2021/11/14 06:21:27;;;;;;;134.20;88.90;;;;;;;4.03;100.00;99428.84;102409;1310;74665;-72
2021/11/14 06:23:54;;;;;;;139.30;90.00;;;;;;;4.04;100.00;99431.25;102319;1314;70660;-74
2021/11/14 06:26:23;;;;;;;138.50;88.60;;;;;;;4.06;100.00;99430.86;101873;1319;74480;-72
2021/11/14 06:28:51;;;;;;;146.00;94.00;;;;;;;4.08;100.00;99436.95;102379;1314;61326;-72
2021/11/14 06:31:18;;;;;;;135.50;92.50;;;;;;;4.09;100.00;99438.15;102231;1314;61349;-72
2021/11/14 06:33:45;;;;;;;146.00;93.30;;;;;;;4.11;100.00;99441.77;102334;1310;75268;-72
2021/11/14 06:36:12;;;;;;;130.40;88.00;;;;;;;4.10;100.00;99446.70;102298;1311;68166;-72
2021/11/14 06:38:39;;;;;;;142.70;94.80;;;;;;;4.10;100.00;99453.23;102322;1316;72880;-72
2021/11/14 06:41:06;;;;;;;133.40;89.80;;;;;;;4.11;100.00;99452.49;102207;1313;61257;-72
2021/11/14 06:43:32;;;;;;;139.90;92.00;;;;;;;4.12;100.00;99456.14;102332;1317;62070;-72
2021/11/14 06:45:59;;;;;;;134.40;90.00;;;;;;;4.15;100.00;99458.52;102332;1314;74935;-72
2021/11/14 06:48:26;;;;;;;131.00;88.30;;;;;;;4.17;100.00;99460.20;101843;1316;69031;-72
2021/11/14 06:50:52;;;;;;;138.10;87.70;;;;;;;4.19;100.00;99457.15;102291;1310;74544;-73
2021/11/14 06:53:19;;;;;;;130.30;82.70;;;;;;;4.21;100.00;99459.73;102319;1316;61323;-72
2021/11/14 06:55:46;;;;;;;124.40;82.50;;;;;;;4.24;100.00;99461.91;102312;1314;61343;-73
2021/11/14 06:58:13;;;;;;;123.80;84.90;;;;;;;4.27;100.00;99467.24;102310;1310;76423;-73
2021/11/14 07:00:42;;;;;;;131.60;84.50;;;;;;;4.33;100.00;99469.86;102323;1310;69397;-73
2021/11/14 07:03:09;;;;;;;129.40;83.40;;;;;;;4.38;100.00;99469.88;102295;1316;75134;-73
2021/11/14 07:05:36;;;;;;;135.30;84.30;;;;;;;4.42;100.00;99473.62;102300;1316;61316;-72
2021/11/14 07:08:02;;;;;;;125.10;83.20;;;;;;;4.43;100.00;99476.73;102310;1316;61406;-72
2021/11/14 07:10:31;;;;;;;130.80;86.60;;;;;;;4.44;100.00;99478.12;102318;1317;75084;-72
2021/11/14 07:12:58;;;;;;;128.70;84.00;;;;;;;4.47;100.00;99481.02;102328;1316;69398;-73
2021/11/14 07:15:24;;;;;;;126.10;81.60;;;;;;;4.48;100.00;99485.90;102336;1317;74578;-72
2021/11/14 07:17:51;;;;;;;129.90;81.60;;;;;;;4.49;100.00;99490.08;102263;1311;61657;-72
2021/11/14 07:20:19;;;;;;;131.30;86.40;;;;;;;4.52;100.00;99486.81;102298;1317;62451;-73
2021/11/14 07:22:47;;;;;;;118.00;80.10;;;;;;;4.56;100.00;99484.23;102345;1311;74946;-72
2021/11/14 07:25:17;;;;;;;125.70;80.60;;;;;;;4.56;100.00;99488.95;102273;1316;70805;-72
2021/11/14 07:27:48;;;;;;;128.20;82.30;;;;;;;4.57;100.00;99493.30;102276;1311;74610;-73
2021/11/14 07:30:15;;;;;;;127.10;83.50;;;;;;;4.60;100.00;99492.51;102069;1319;61385;-72
2021/11/14 07:32:42;;;;;;;121.70;81.90;;;;;;;4.65;100.00;99493.59;102320;1318;61312;-73
2021/11/14 07:35:14;;;;;;;124.00;78.90;;;;;;;4.69;100.00;99489.95;102361;1316;76405;-73
2021/11/14 07:37:41;;;;;;;120.20;78.80;;;;;;;4.73;100.00;99489.59;102418;1316;69359;-74
2021/11/14 07:40:10;;;;;;;116.00;78.30;;;;;;;4.80;100.00;99496.05;101913;1318;73553;-73
2021/11/14 07:42:37;;;;;;;133.90;87.50;;;;;;;4.86;100.00;99490.55;102465;1316;61293;-72
2021/11/14 07:45:06;;;;;;;116.70;81.20;;;;;;;4.93;100.00;99491.91;102453;1316;61305;-72
2021/11/14 07:47:33;;;;;;;124.70;84.60;;;;;;;5.00;100.00;99492.17;102367;1310;75541;-73
2021/11/14 07:50:00;;;;;;;114.20;74.60;;;;;;;5.07;100.00;99481.88;102310;1317;70492;-73
2021/11/14 07:52:29;;;;;;;123.40;83.70;;;;;;;5.14;100.00;99486.89;102289;1316;73663;-73
2021/11/14 07:54:55;;;;;;;216.60;125.60;;;;;;;5.21;100.00;99484.89;102203;1317;61326;-73
2021/11/14 07:57:22;;;;;;;144.20;92.50;;;;;;;5.26;100.00;99491.54;102135;1319;61358;-73
2021/11/14 07:59:49;;;;;;;266.10;131.40;;;;;;;5.32;100.00;99490.82;102288;1316;76411;-72
2021/11/14 08:02:15;;;;;;;201.70;111.10;;;;;;;5.37;100.00;99492.02;102284;1310;70568;-72
2021/11/14 08:04:42;;;;;;;120.70;77.70;;;;;;;5.47;100.00;99492.38;101857;1315;72976;-73
2021/11/14 08:07:10;;;;;;;109.00;72.60;;;;;;;5.53;100.00;99497.74;102347;1316;61674;-72
2021/11/14 08:09:37;;;;;;;106.50;73.00;;;;;;;5.59;100.00;99502.49;102224;1317;61322;-73
2021/11/14 08:12:04;;;;;;;106.40;73.70;;;;;;;5.63;100.00;99504.09;102316;1317;75451;-73
2021/11/14 08:14:31;;;;;;;105.80;69.00;;;;;;;5.70;100.00;99507.15;101946;1319;69205;-72
2021/11/14 08:16:58;;;;;;;103.50;71.10;;;;;;;5.79;100.00;99510.70;102292;1317;73464;-72
2021/11/14 08:19:24;;;;;;;103.80;67.70;;;;;;;5.84;100.00;99512.98;102322;1316;61322;-73
2021/11/14 08:21:51;;;;;;;104.80;71.50;;;;;;;5.88;100.00;99517.20;102265;1314;61318;-74
2021/11/14 08:24:17;;;;;;;105.10;69.20;;;;;;;5.90;99.95;99519.58;101935;1313;75616;-76
2021/11/14 08:26:44;;;;;;;102.10;68.00;;;;;;;5.96;99.91;99518.20;102253;1317;69409;-73
2021/11/14 08:29:11;;;;;;;101.60;73.20;;;;;;;5.99;99.75;99518.94;102625;1317;72217;-74
2021/11/14 08:31:38;;;;;;;109.20;73.70;;;;;;;6.03;99.55;99522.66;102313;1317;61319;-73
2021/11/14 08:34:06;;;;;;;102.40;68.80;;;;;;;6.07;99.39;99526.20;102316;1316;62140;-72
2021/11/14 08:36:33;;;;;;;102.80;71.90;;;;;;;6.08;99.17;99522.81;101890;1316;75053;-72
2021/11/14 08:39:03;;;;;;;101.00;67.70;;;;;;;6.04;99.00;99524.88;102235;1316;68435;-73
2021/11/14 08:41:30;;;;;;;103.70;70.80;;;;;;;6.06;98.97;99525.54;102317;1316;72970;-73
2021/11/14 08:43:57;;;;;;;100.90;68.60;;;;;;;6.10;98.98;99527.13;101930;1313;61409;-75
2021/11/14 08:46:23;;;;;;;100.70;68.00;;;;;;;6.13;98.86;99526.11;102342;1314;61298;-73
2021/11/14 08:48:50;;;;;;;100.60;68.10;;;;;;;6.21;98.74;99526.02;102307;1316;75494;-73
2021/11/14 08:51:18;;;;;;;97.20;67.40;;;;;;;6.24;98.39;99527.80;102426;1311;70847;-74
2021/11/14 08:53:45;;;;;;;94.80;64.40;;;;;;;6.26;98.29;99529.13;102327;1311;74519;-72
2021/11/14 08:56:11;;;;;;;94.40;64.70;;;;;;;6.29;98.00;99529.90;102323;1316;61314;-73
2021/11/14 08:58:40;;;;;;;93.90;65.00;;;;;;;6.32;97.88;99533.50;102298;1310;61415;-73
2021/11/14 09:01:10;;;;;;;86.20;61.90;;;;;;;6.31;97.56;99536.31;102215;1313;75473;-73
2021/11/14 09:03:36;;;;;;;91.30;62.60;;;;;;;6.33;97.52;99535.36;102437;1317;68987;-73
2021/11/14 09:06:03;;;;;;;95.50;62.20;;;;;;;6.36;97.41;99540.53;101904;1314;72913;-73
2021/11/14 09:08:30;;;;;;;91.40;61.70;;;;;;;6.40;97.39;99542.16;102265;1317;61412;-73
2021/11/14 09:10:57;;;;;;;91.00;62.40;;;;;;;6.42;97.06;99545.08;102195;1314;61394;-73
2021/11/14 09:13:24;;;;;;;92.30;61.80;;;;;;;6.43;97.12;99543.97;102307;1316;76002;-73
2021/11/14 09:15:52;;;;;;;92.50;60.20;;;;;;;6.45;96.94;99540.55;102331;1314;70915;-73
2021/11/14 09:18:19;;;;;;;93.40;61.30;;;;;;;6.48;97.07;99543.61;102303;1310;73369;-74
2021/11/14 09:20:47;;;;;;;104.90;69.30;;;;;;;6.51;96.81;99544.19;101848;1314;61392;-74
2021/11/14 09:23:14;;;;;;;102.20;65.00;;;;;;;6.54;96.73;99543.87;101948;1314;61410;-73
2021/11/14 09:25:41;;;;;;;91.50;63.50;;;;;;;6.62;96.89;99542.11;102317;1313;75549;-73
2021/11/14 09:28:10;;;;;;;93.00;61.60;;;;;;;6.70;96.64;99540.71;102388;1317;68987;-72
2021/11/14 09:30:38;;;;;;;90.00;60.90;;;;;;;6.77;96.41;99539.39;102435;1311;73566;-72
2021/11/14 09:33:06;;;;;;;140.00;90.70;;;;;;;6.79;96.04;99544.77;102322;1310;61342;-73
2021/11/14 09:35:33;;;;;;;103.50;71.30;;;;;;;6.76;95.91;99546.99;102294;1310;61342;-73
2021/11/14 09:37:59;;;;;;;93.50;67.60;;;;;;;6.79;96.11;99548.80;101806;1320;76217;-73
2021/11/14 09:40:26;;;;;;;93.80;62.40;;;;;;;6.86;96.15;99552.42;102336;1310;69548;-73
2021/11/14 09:42:53;;;;;;;92.80;62.10;;;;;;;6.91;95.99;99550.59;102341;1314;73835;-73
2021/11/14 09:45:20;;;;;;;88.10;61.00;;;;;;;6.97;95.99;99552.80;102492;1317;61412;-74
2021/11/14 09:47:47;;;;;;;85.30;59.80;;;;;;;7.06;95.92;99550.81;102308;1313;62166;-73
2021/11/14 09:50:13;;;;;;;85.70;58.80;;;;;;;7.15;95.69;99553.83;102368;1316;74908;-79
2021/11/14 09:52:40;;;;;;;88.00;60.60;;;;;;;7.16;95.27;99552.52;102510;1311;68944;-75
2021/11/14 09:55:09;;;;;;;81.40;57.70;;;;;;;7.18;95.01;99556.32;102036;1315;73432;-76
2021/11/14 09:57:39;;;;;;;82.00;58.20;;;;;;;7.18;94.82;99555.59;102066;1318;61381;-80
2021/11/14 10:00:08;;;;;;;81.00;58.00;;;;;;;7.17;94.63;99559.54;102500;1313;61241;-71
2021/11/14 10:02:37;;;;;;;83.90;58.90;;;;;;;7.19;94.66;99559.08;102331;1311;76567;-70
2021/11/14 10:05:06;;;;;;;81.30;57.70;;;;;;;7.24;94.79;99562.06;102282;1310;70437;-71
2021/11/14 10:07:33;;;;;;;86.20;59.30;;;;;;;7.30;94.53;99564.81;102246;1313;74395;-71
2021/11/14 10:10:00;;;;;;;83.70;59.20;;;;;;;7.35;94.44;99567.77;102293;1316;61409;-71
2021/11/14 10:12:35;;;;;;;90.50;63.80;;;;;;;7.40;94.32;99567.37;102092;1314;61377;-71
2021/11/14 10:15:13;;;;;;;80.50;57.50;;;;;;;7.43;93.95;99563.70;102340;1310;76328;-71
2021/11/14 10:17:56;;;;;;;79.20;56.80;;;;;;;7.44;93.94;99565.92;102332;1316;68882;-71
2021/11/14 10:20:25;;;;;;;77.00;55.00;;;;;;;7.54;93.93;99564.61;102356;1309;74583;-70
2021/11/14 10:23:00;;;;;;;81.10;54.60;;;;;;;7.58;93.60;99567.42;102441;1310;61321;-71
2021/11/14 10:25:28;;;;;;;77.10;52.50;;;;;;;7.65;93.50;99572.09;102231;1317;61295;-71
2021/11/14 10:27:58;;;;;;;72.70;50.40;;;;;;;7.69;93.08;99572.42;102362;1311;75497;-71
2021/11/14 10:30:27;;;;;;;73.50;52.30;;;;;;;7.72;92.75;99571.40;102262;1313;67870;-70
2021/11/14 10:32:59;;;;;;;78.20;53.10;;;;;;;7.79;92.97;99571.41;102399;1311;74094;-71
2021/11/14 10:35:27;;;;;;;71.70;51.40;;;;;;;7.88;92.71;99572.60;102052;1316;61345;-70
2021/11/14 10:37:55;;;;;;;70.70;49.90;;;;;;;7.91;92.43;99572.45;102731;1311;61314;-70
2021/11/14 10:40:25;;;;;;;70.10;49.20;;;;;;;7.95;92.38;99570.86;102508;1310;73884;-71
2021/11/14 10:42:57;;;;;;;72.10;49.20;;;;;;;7.99;92.15;99572.97;102390;1311;69861;-71
2021/11/14 10:45:25;;;;;;;62.10;44.80;;;;;;;8.02;91.94;99575.48;102572;1316;74568;-71
2021/11/14 10:48:04;;;;;;;58.50;41.40;;;;;;;8.06;91.69;99573.85;102492;1310;61288;-70
2021/11/14 10:50:40;;;;;;;62.50;43.40;;;;;;;8.13;91.52;99579.77;102494;1311;61314;-70
2021/11/14 10:53:12;;;;;;;57.60;41.90;;;;;;;8.18;91.33;99577.90;101920;1316;76442;-70
2021/11/14 10:55:43;;;;;;;63.70;43.70;;;;;;;8.18;90.85;99578.45;102453;1313;69463;-71
2021/11/14 10:58:12;;;;;;;61.30;43.60;;;;;;;8.19;90.70;99576.64;102359;1311;73544;-70
2021/11/14 11:00:42;;;;;;;59.40;42.10;;;;;;;8.20;90.43;99579.59;102392;1314;61319;-71
2021/11/14 11:03:10;;;;;;;65.40;46.20;;;;;;;8.20;90.27;99577.08;102407;1311;62438;-71
2021/11/14 11:05:38;;;;;;;64.70;44.90;;;;;;;8.24;90.58;99578.17;102273;1313;75458;-71